Página principal
METAR-TAF:

METAR-TAF

Aeroportos :

Tenerife Sul, Espanha

Aeroporto de Tenerife Sul

latitude: 28-03N, longitude: 016-34W, altura: 64 m

Observação actual do tempo

O boletim foi feito há 36 minutos, às 13:00 UTC
Vento 6 kt de sudoeste, variando entre su-sudeste e oeste
Temperatura 22°C
Humidade 65%
Pressão 1018 hPa
Visibilidade 10 km ou mais
Poucas nuvensa uma altura de 3500 ft

METAR: GCTS 201300Z 23006KT 160V280 9999 FEW035 22/15 Q1018 NOSIG

Hora: 13:36 (13:36 UTC)

Previsão

O boletim foi feito há 5 horas e 36 minutos, às 08:00 UTC
Previsão válida de 20 às 09 UTC a 21 às 09 UTC
Vento 10 kt de oes-sudoeste
Visibilidade 10 km ou mais
Poucas nuvensa uma altura de 3500 ft
Probabilidade 30% :
Temporariamente
de 20 às 14 UTC a 20 às 20 UTC
chuva
Tornando-se
de 20 às 20 UTC a 20 às 22 UTC
Vento 6 kt de oes-noroeste

TAF: GCTS 200800Z 2009/2109 24010KT 9999 FEW035 TX25/2013Z TN17/2106Z PROB30 TEMPO 2014/2020 RA BECMG 2020/2022 30006KT

Observações e previsões do tempo de mais de 4000 aeroportos (mensagens METAR e TAF).

As estações disponíveis são os pontos amarelos e vermelhos sobre o mapa.

Mova o rato sobre o mapa para ver o nome da estação.

Depois clique no ponto para visualizar as observações e previsões meteorológicas.

Para alterar o mapa : clique nos botões verdes com uma cruz preta para aumentar o zoom; no botão verde com uma pitada de zoom; ou nas setas verdes para mapas adjacentes.


METAR-TAF: